createdAt,value
2018-10-19T00:02:12.768Z,14.97
2018-10-19T00:04:41.204Z,14.97
2018-10-19T00:07:09.645Z,13.73
2018-10-19T00:09:38.045Z,12.90
2018-10-19T00:12:06.489Z,14.07
2018-10-19T00:14:34.880Z,13.30
2018-10-19T00:17:03.409Z,12.90
2018-10-19T00:19:32.328Z,13.53
2018-10-19T00:22:00.761Z,13.37
2018-10-19T00:24:29.144Z,13.43
2018-10-19T00:26:57.839Z,12.97
2018-10-19T00:29:26.744Z,13.00
2018-10-19T00:31:55.230Z,12.23
2018-10-19T00:34:23.637Z,12.90
2018-10-19T00:36:52.077Z,12.70
2018-10-19T00:39:21.115Z,12.80
2018-10-19T00:41:49.529Z,13.17
2018-10-19T00:44:17.993Z,13.63
2018-10-19T00:46:46.413Z,12.53
2018-10-19T00:49:14.962Z,12.70
2018-10-19T00:51:43.362Z,11.77
2018-10-19T00:54:11.741Z,13.57
2018-10-19T00:56:40.172Z,13.40
2018-10-19T00:59:08.594Z,13.23
2018-10-19T01:01:36.944Z,14.03
2018-10-19T01:04:06.144Z,14.37
2018-10-19T01:06:34.852Z,13.73
2018-10-19T01:09:03.619Z,12.70
2018-10-19T01:11:31.945Z,14.23
2018-10-19T01:14:00.361Z,13.80
2018-10-19T01:16:28.758Z,13.83
2018-10-19T01:18:57.164Z,12.50
2018-10-19T01:21:25.564Z,13.03
2018-10-19T01:23:53.959Z,11.67
2018-10-19T01:26:22.357Z,11.50
2018-10-19T01:28:50.836Z,11.00
2018-10-19T01:31:19.262Z,11.20
2018-10-19T01:33:47.665Z,12.97
2018-10-19T01:36:16.093Z,11.33
2018-10-19T01:38:44.532Z,11.60
2018-10-19T01:41:13.006Z,12.07
2018-10-19T01:43:41.328Z,11.93
2018-10-19T01:46:09.734Z,12.30
2018-10-19T01:48:38.132Z,12.53
2018-10-19T01:51:06.591Z,12.23
2018-10-19T01:53:34.948Z,12.60
2018-10-19T01:56:03.329Z,11.97
2018-10-19T01:58:31.736Z,13.10
2018-10-19T02:01:00.141Z,12.50
2018-10-19T02:03:28.616Z,12.93
2018-10-19T02:05:57.004Z,12.60
2018-10-19T02:08:25.492Z,12.90
2018-10-19T02:10:53.953Z,13.00
2018-10-19T02:13:22.377Z,12.47
2018-10-19T02:15:50.789Z,12.77
2018-10-19T02:18:19.213Z,11.23
2018-10-19T02:20:47.630Z,13.43
2018-10-19T02:23:16.166Z,13.40
2018-10-19T02:25:44.464Z,14.00
2018-10-19T02:28:12.909Z,14.10
2018-10-19T02:30:41.297Z,17.03
2018-10-19T02:33:09.765Z,15.60
2018-10-19T02:35:38.109Z,15.73
2018-10-19T02:38:06.781Z,15.97
2018-10-19T02:40:35.232Z,15.57
2018-10-19T02:43:03.647Z,15.17
2018-10-19T02:45:34.445Z,14.60
2018-10-19T02:48:03.621Z,16.57
2018-10-19T02:50:32.018Z,17.30
2018-10-19T02:53:00.649Z,16.97
2018-10-19T02:55:29.048Z,16.73
2018-10-19T02:57:57.461Z,16.50
2018-10-19T03:00:25.845Z,16.77
2018-10-19T03:02:54.242Z,16.57
2018-10-19T03:05:22.618Z,16.43
2018-10-19T03:07:51.285Z,16.90
2018-10-19T03:10:19.700Z,17.60
2018-10-19T03:12:48.112Z,15.90
2018-10-19T03:15:16.556Z,16.57
2018-10-19T03:17:44.908Z,17.20
2018-10-19T03:20:13.334Z,16.07
2018-10-19T03:22:41.748Z,18.13
2018-10-19T03:25:10.540Z,18.13
2018-10-19T03:27:38.937Z,18.53
2018-10-19T03:30:08.136Z,16.63
2018-10-19T03:32:36.569Z,17.20
2018-10-19T03:35:06.047Z,17.83
2018-10-19T03:37:34.437Z,17.40
2018-10-19T03:40:02.886Z,19.87
2018-10-19T03:42:31.297Z,18.57
2018-10-19T03:44:59.763Z,17.10
2018-10-19T03:47:28.105Z,17.33
2018-10-19T03:49:56.533Z,17.67
2018-10-19T03:52:25.158Z,17.30
2018-10-19T03:54:53.547Z,18.67
2018-10-19T03:57:21.947Z,17.60
2018-10-19T03:59:50.314Z,16.87
2018-10-19T04:02:18.716Z,17.80
2018-10-19T04:04:47.102Z,19.03
2018-10-19T04:07:15.502Z,19.87
2018-10-19T04:09:43.896Z,16.40
2018-10-19T04:12:12.354Z,17.53
2018-10-19T04:14:40.729Z,17.87
2018-10-19T04:17:09.893Z,17.27
2018-10-19T04:19:38.246Z,18.40
2018-10-19T04:22:06.624Z,17.07
2018-10-19T04:24:35.018Z,16.90
2018-10-19T04:27:03.460Z,18.40
2018-10-19T04:29:31.791Z,17.90
2018-10-19T04:32:00.181Z,16.97
2018-10-19T04:34:28.584Z,17.60
2018-10-19T04:37:02.180Z,17.43
2018-10-19T04:39:30.583Z,16.23
2018-10-19T04:41:59.049Z,16.60
2018-10-19T04:44:27.625Z,17.03
2018-10-19T04:46:56.118Z,18.80
2018-10-19T04:49:24.683Z,18.30
2018-10-19T04:51:53.149Z,16.63
2018-10-19T04:54:21.752Z,16.23
2018-10-19T04:56:50.141Z,17.00
2018-10-19T04:59:18.925Z,17.20
2018-10-19T05:01:47.509Z,16.57
2018-10-19T05:04:16.013Z,19.30
2018-10-19T05:06:44.512Z,18.70
2018-10-19T05:09:13.269Z,17.50
2018-10-19T05:11:42.964Z,18.87
2018-10-19T05:14:11.425Z,17.63
2018-10-19T05:16:39.789Z,18.63
2018-10-19T05:19:08.720Z,18.73
2018-10-19T05:21:37.793Z,17.40
2018-10-19T05:24:06.396Z,19.53
2018-10-19T05:26:34.957Z,16.70
2018-10-19T05:29:03.425Z,17.30
2018-10-19T05:31:31.908Z,18.43
2018-10-19T05:34:00.301Z,17.60
2018-10-19T05:36:28.701Z,17.10
2018-10-19T05:38:57.096Z,17.87
2018-10-19T05:41:25.521Z,16.40
2018-10-19T05:43:53.950Z,17.10
2018-10-19T05:46:22.361Z,16.87
2018-10-19T05:48:50.803Z,16.80
2018-10-19T05:51:19.211Z,15.90
2018-10-19T05:53:47.612Z,17.03
2018-10-19T05:56:16.786Z,16.47
2018-10-19T05:58:45.084Z,16.90
2018-10-19T06:01:13.526Z,17.07
2018-10-19T06:03:41.944Z,18.20
2018-10-19T06:06:10.535Z,16.50
2018-10-19T06:08:38.931Z,16.73
2018-10-19T06:11:07.358Z,17.30
2018-10-19T06:13:35.791Z,17.57
2018-10-19T06:16:04.181Z,17.03
2018-10-19T06:18:32.861Z,18.17
2018-10-19T06:21:01.416Z,17.07
2018-10-19T06:23:30.376Z,16.00
2018-10-19T06:25:58.842Z,16.40
2018-10-19T06:28:27.196Z,17.53
2018-10-19T06:30:55.621Z,16.83
2018-10-19T06:33:24.019Z,17.10
2018-10-19T06:35:52.477Z,17.33
2018-10-19T06:38:20.868Z,17.33
2018-10-19T06:40:49.356Z,17.93
2018-10-19T06:43:17.673Z,17.33
2018-10-19T06:45:46.093Z,16.67
2018-10-19T06:48:14.511Z,16.00
2018-10-19T06:50:42.913Z,17.50
2018-10-19T06:53:11.369Z,17.20
2018-10-19T06:55:39.936Z,18.30
2018-10-19T06:58:08.351Z,17.50
2018-10-19T07:00:36.760Z,17.70
2018-10-19T07:03:05.872Z,17.67
2018-10-19T07:05:34.278Z,17.10
2018-10-19T07:08:02.764Z,18.37
2018-10-19T07:10:31.139Z,18.30
2018-10-19T07:12:59.543Z,16.70
2018-10-19T07:15:28.021Z,18.80
2018-10-19T07:17:56.406Z,16.87
2018-10-19T07:20:24.811Z,16.90
2018-10-19T07:22:53.423Z,17.67
2018-10-19T07:25:21.820Z,18.33
2018-10-19T07:27:50.241Z,17.23
2018-10-19T07:30:18.660Z,16.73
2018-10-19T07:32:47.130Z,16.63
2018-10-19T07:35:15.634Z,17.70
2018-10-19T07:37:43.964Z,15.73
2018-10-19T07:40:12.361Z,16.87
2018-10-19T07:42:40.769Z,19.47
2018-10-19T07:45:09.229Z,16.50
2018-10-19T07:47:37.941Z,17.80
2018-10-19T07:50:06.789Z,17.67
2018-10-19T07:52:35.289Z,17.47
2018-10-19T07:55:03.784Z,17.90
2018-10-19T07:57:32.202Z,17.57
2018-10-19T08:00:00.594Z,20.13
2018-10-19T08:02:29.029Z,18.70
2018-10-19T08:04:57.445Z,19.30
2018-10-19T08:07:25.873Z,20.67
2018-10-19T08:09:54.268Z,20.53
2018-10-19T08:12:22.696Z,21.77
2018-10-19T08:14:51.104Z,21.13
2018-10-19T08:17:19.593Z,21.20
2018-10-19T08:19:47.980Z,22.60
2018-10-19T08:22:16.385Z,25.17
2018-10-19T08:24:44.768Z,24.03
2018-10-19T08:27:13.246Z,24.07
2018-10-19T08:29:41.617Z,24.23
2018-10-19T08:32:10.325Z,23.30
2018-10-19T08:34:38.960Z,22.80
2018-10-19T08:37:07.382Z,24.30
2018-10-19T08:39:35.829Z,23.40
2018-10-19T08:42:04.584Z,22.63
2018-10-19T08:44:33.001Z,23.90
2018-10-19T08:47:01.516Z,23.40
2018-10-19T08:49:29.917Z,24.80
2018-10-19T08:51:58.312Z,24.83
2018-10-19T08:54:26.752Z,26.17
2018-10-19T08:56:55.203Z,24.17
2018-10-19T08:59:23.602Z,23.53
2018-10-19T09:01:52.008Z,23.60
2018-10-19T09:04:20.408Z,23.40
2018-10-19T09:06:48.816Z,24.20
2018-10-19T09:09:17.356Z,25.30
2018-10-19T09:11:45.757Z,25.10
2018-10-19T09:14:25.404Z,24.43
2018-10-19T09:16:53.863Z,24.60
2018-10-19T09:19:22.212Z,25.07
2018-10-19T09:21:50.636Z,24.40
2018-10-19T09:24:19.033Z,21.50
2018-10-19T09:26:47.497Z,22.97
2018-10-19T09:29:15.889Z,22.53
2018-10-19T09:31:44.800Z,24.70
2018-10-19T09:34:13.240Z,24.40
2018-10-19T09:36:41.758Z,23.83
2018-10-19T09:39:13.321Z,23.33
2018-10-19T09:41:42.156Z,26.07
2018-10-19T09:44:10.588Z,25.27
2018-10-19T09:46:41.053Z,24.80
2018-10-19T09:49:13.009Z,25.50
2018-10-19T09:51:42.034Z,24.50
2018-10-19T09:54:11.724Z,24.57
2018-10-19T09:56:40.213Z,24.00
2018-10-19T09:59:08.659Z,24.90
2018-10-19T10:01:37.700Z,24.73
2018-10-19T10:04:06.191Z,23.17
2018-10-19T10:06:34.641Z,24.10
2018-10-19T10:09:03.292Z,23.03
2018-10-19T10:11:31.675Z,22.33
2018-10-19T10:14:00.054Z,23.63
2018-10-19T10:16:28.477Z,22.57
2018-10-19T10:18:56.919Z,21.63
2018-10-19T10:21:25.385Z,21.53
2018-10-19T10:23:53.776Z,23.20
2018-10-19T10:26:22.251Z,20.83
2018-10-19T10:28:50.654Z,22.87
2018-10-19T10:31:19.069Z,22.00
2018-10-19T10:33:47.533Z,22.37
2018-10-19T10:36:15.991Z,22.70
2018-10-19T10:38:44.485Z,22.43
2018-10-19T10:41:14.402Z,22.00
2018-10-19T10:43:42.840Z,22.83
2018-10-19T10:46:11.272Z,21.43
2018-10-19T10:48:39.688Z,21.87
2018-10-19T10:51:08.091Z,20.53
2018-10-19T10:53:36.506Z,19.53
2018-10-19T10:56:05.172Z,19.40
2018-10-19T10:58:33.559Z,20.70
2018-10-19T11:01:02.037Z,19.80
2018-10-19T11:03:30.420Z,20.47
2018-10-19T11:05:58.837Z,19.57
2018-10-19T11:08:27.224Z,20.37
2018-10-19T11:11:05.405Z,19.30
2018-10-19T11:13:33.817Z,19.80
2018-10-19T11:16:02.309Z,20.40
2018-10-19T11:18:30.852Z,19.70
2018-10-19T11:20:59.269Z,19.23
2018-10-19T11:23:27.893Z,20.87
2018-10-19T11:25:56.305Z,19.93
2018-10-19T11:28:32.917Z,19.67
2018-10-19T11:31:01.920Z,19.67
2018-10-19T11:33:30.316Z,20.10
2018-10-19T11:35:58.760Z,20.03
2018-10-19T11:38:27.184Z,21.37
2018-10-19T11:40:55.573Z,20.80
2018-10-19T11:43:23.996Z,20.40
2018-10-19T11:45:52.428Z,19.90
2018-10-19T11:48:20.840Z,19.47
2018-10-19T11:50:49.289Z,21.37
2018-10-19T11:53:17.695Z,21.00
2018-10-19T11:55:46.116Z,20.43
2018-10-19T11:58:15.298Z,21.00
2018-10-19T12:00:43.656Z,20.80
2018-10-19T12:03:12.071Z,21.10
2018-10-19T12:05:40.509Z,19.67
2018-10-19T12:08:08.957Z,20.70
2018-10-19T12:10:37.389Z,19.60
2018-10-19T12:13:06.403Z,18.90
2018-10-19T12:15:34.825Z,19.50
2018-10-19T12:18:03.303Z,19.17
2018-10-19T12:20:31.757Z,20.30
2018-10-19T12:23:00.162Z,19.07
2018-10-19T12:25:28.648Z,30.57
2018-10-19T12:27:57.080Z,19.90
2018-10-19T12:30:25.532Z,19.00
2018-10-19T12:32:54.004Z,18.13
2018-10-19T12:35:22.491Z,17.90
2018-10-19T12:37:50.903Z,17.80
2018-10-19T12:40:19.365Z,20.10
2018-10-19T12:42:47.779Z,21.50
2018-10-19T12:46:33.948Z,20.33
2018-10-19T12:49:02.445Z,22.20
2018-10-19T12:51:30.827Z,22.10
2018-10-19T12:53:59.254Z,21.30
2018-10-19T12:56:27.625Z,20.80
2018-10-19T12:58:56.556Z,22.07
2018-10-19T13:01:26.449Z,21.50
2018-10-19T13:03:54.985Z,21.97
2018-10-19T13:06:23.436Z,21.73
2018-10-19T13:08:52.235Z,21.57
2018-10-19T13:11:20.876Z,24.07
2018-10-19T13:13:49.335Z,22.37
2018-10-19T13:16:17.854Z,22.13
2018-10-19T13:18:46.211Z,21.60
2018-10-19T13:21:14.710Z,22.80
2018-10-19T13:23:48.573Z,22.40
2018-10-19T13:26:17.036Z,22.70
2018-10-19T13:28:45.477Z,23.97
2018-10-19T13:31:13.903Z,23.67
2018-10-19T13:33:42.324Z,22.97
2018-10-19T13:36:10.965Z,23.70
2018-10-19T13:38:39.280Z,24.43
2018-10-19T13:41:07.715Z,26.90
2018-10-19T13:43:36.372Z,24.60
2018-10-19T13:46:05.281Z,26.67
2018-10-19T13:48:33.825Z,26.73
2018-10-19T13:51:02.427Z,24.77
2018-10-19T13:53:30.812Z,25.47
2018-10-19T13:55:59.242Z,25.30
2018-10-19T13:58:27.722Z,25.50
2018-10-19T14:00:59.150Z,25.07
2018-10-19T14:03:27.594Z,23.90
2018-10-19T14:05:56.868Z,23.63
2018-10-19T14:08:25.389Z,25.67
2018-10-19T14:10:53.870Z,24.20
2018-10-19T14:13:22.292Z,24.47
2018-10-19T14:15:50.717Z,27.03
2018-10-19T14:18:19.317Z,25.70
2018-10-19T14:20:47.837Z,24.87
2018-10-19T14:23:16.407Z,26.73
2018-10-19T14:25:44.777Z,26.67
2018-10-19T14:28:13.200Z,27.67
2018-10-19T14:30:41.636Z,27.10
2018-10-19T14:33:10.117Z,25.47
2018-10-19T14:35:38.561Z,25.00
2018-10-19T14:38:07.056Z,25.30
2018-10-19T14:40:35.489Z,24.60
2018-10-19T14:43:04.008Z,24.93
2018-10-19T14:45:32.455Z,24.53
2018-10-19T14:48:00.872Z,20.80
2018-10-19T14:50:29.277Z,19.00
2018-10-19T14:52:57.802Z,19.57
2018-10-19T14:55:26.232Z,18.50
2018-10-19T14:57:54.634Z,18.07
2018-10-19T15:00:23.032Z,22.20
2018-10-19T15:02:51.506Z,23.57
2018-10-19T15:05:20.386Z,26.80
2018-10-19T15:07:48.836Z,26.17
2018-10-19T15:10:18.851Z,27.10
2018-10-19T15:12:47.161Z,27.33
2018-10-19T15:15:17.113Z,26.50
2018-10-19T15:17:45.818Z,25.10
2018-10-19T15:20:14.881Z,28.90
2018-10-19T15:22:43.668Z,27.60
2018-10-19T15:25:12.624Z,27.33
2018-10-19T15:27:42.392Z,26.43
2018-10-19T15:30:12.354Z,28.37
2018-10-19T15:32:40.778Z,28.73
2018-10-19T15:35:09.866Z,27.93
2018-10-19T15:37:38.433Z,28.50
2018-10-19T15:40:07.836Z,28.93
2018-10-19T15:42:36.263Z,28.77
2018-10-19T15:45:05.740Z,26.90
2018-10-19T15:47:34.294Z,28.23
2018-10-19T15:50:02.868Z,26.60
2018-10-19T15:52:31.345Z,28.10
2018-10-19T15:54:59.810Z,27.43
2018-10-19T15:57:28.257Z,27.73
2018-10-19T15:59:56.660Z,27.50
2018-10-19T16:02:25.640Z,27.37
2018-10-19T16:04:54.095Z,25.97
2018-10-19T16:07:22.559Z,26.27
2018-10-19T16:09:50.969Z,26.27
2018-10-19T16:12:19.485Z,26.80
2018-10-19T16:14:48.637Z,30.43
2018-10-19T16:17:17.737Z,27.67
2018-10-19T16:19:46.892Z,25.57
2018-10-19T16:22:15.396Z,26.40
2018-10-19T16:24:43.850Z,26.67
2018-10-19T16:27:12.413Z,29.00
2018-10-19T16:29:40.777Z,30.20
2018-10-19T16:32:09.194Z,29.90
2018-10-19T16:34:37.614Z,30.33
2018-10-19T16:37:06.061Z,28.50
2018-10-19T16:39:34.523Z,27.40
2018-10-19T16:42:03.129Z,25.80
2018-10-19T16:44:31.558Z,25.53
2018-10-19T16:47:00.086Z,25.30
2018-10-19T16:49:28.494Z,29.60
2018-10-19T16:51:56.971Z,30.10
2018-10-19T16:54:25.491Z,32.57
2018-10-19T16:56:54.866Z,30.27
2018-10-19T16:59:23.251Z,27.57
2018-10-19T17:01:51.680Z,27.73
2018-10-19T17:04:20.108Z,24.47
2018-10-19T17:06:48.520Z,25.03
2018-10-19T17:09:17.199Z,24.20
2018-10-19T17:11:45.553Z,22.20
2018-10-19T17:14:14.074Z,22.17
2018-10-19T17:16:42.494Z,21.83
2018-10-19T17:19:11.032Z,22.53
2018-10-19T17:21:39.546Z,22.80
2018-10-19T17:24:08.073Z,21.70
2018-10-19T17:26:36.521Z,22.10
2018-10-19T17:29:05.392Z,21.60
2018-10-19T17:31:33.871Z,20.63
2018-10-19T17:34:02.244Z,21.50
2018-10-19T17:36:30.706Z,20.37
2018-10-19T17:38:59.224Z,21.90
2018-10-19T17:41:27.608Z,22.60
2018-10-19T17:43:56.062Z,21.50
2018-10-19T17:46:24.500Z,19.97
2018-10-19T17:48:54.226Z,21.80
2018-10-19T17:51:22.680Z,19.63
2018-10-19T17:53:51.258Z,21.07
2018-10-19T17:56:19.660Z,20.80
2018-10-19T17:58:48.294Z,20.23
2018-10-19T18:01:16.746Z,22.67
2018-10-19T18:03:45.313Z,21.13
2018-10-19T18:06:14.208Z,20.97
2018-10-19T18:08:42.640Z,20.37
2018-10-19T18:11:11.990Z,20.90
2018-10-19T18:13:40.410Z,21.20
2018-10-19T18:16:08.929Z,21.87
2018-10-19T18:18:37.301Z,23.00
2018-10-19T18:21:06.087Z,22.23
2018-10-19T18:23:34.545Z,20.80
2018-10-19T18:26:02.995Z,21.10
2018-10-19T18:28:31.387Z,20.47
2018-10-19T18:30:59.853Z,22.17
2018-10-19T18:33:28.283Z,22.07
2018-10-19T18:35:56.706Z,21.37
2018-10-19T18:38:25.138Z,20.93
2018-10-19T18:40:54.264Z,23.97
2018-10-19T18:43:22.716Z,21.03
2018-10-19T18:45:51.147Z,23.80
2018-10-19T18:48:19.593Z,21.47
2018-10-19T18:50:48.071Z,21.13
2018-10-19T18:53:16.543Z,21.37
2018-10-19T18:55:44.865Z,21.50
2018-10-19T18:58:13.409Z,23.27
2018-10-19T19:00:41.937Z,21.57
2018-10-19T19:03:12.666Z,20.90
2018-10-19T19:05:41.072Z,20.97
2018-10-19T19:08:09.592Z,22.40
2018-10-19T19:10:37.972Z,22.17
2018-10-19T19:13:11.693Z,20.23
2018-10-19T19:15:40.134Z,20.50
2018-10-19T19:18:08.572Z,21.13
2018-10-19T19:20:36.984Z,22.50
2018-10-19T19:23:06.041Z,20.90
2018-10-19T19:25:40.354Z,20.43
2018-10-19T19:28:08.804Z,20.63
2018-10-19T19:30:37.253Z,20.27
2018-10-19T19:33:11.566Z,20.80
2018-10-19T19:35:40.000Z,19.90
2018-10-19T19:38:08.462Z,22.00
2018-10-19T19:40:42.278Z,21.20
2018-10-19T19:43:10.708Z,22.07
2018-10-19T19:45:39.120Z,21.80
2018-10-19T19:48:12.734Z,20.60
2018-10-19T19:50:41.141Z,22.07
2018-10-19T19:53:09.586Z,20.30
2018-10-19T19:55:37.993Z,21.83
2018-10-19T19:58:06.467Z,21.87
2018-10-19T20:00:34.850Z,22.33
2018-10-19T20:03:03.285Z,20.60
2018-10-19T20:05:31.792Z,20.70
2018-10-19T20:08:00.248Z,23.30
2018-10-19T20:10:28.657Z,21.13
2018-10-19T20:12:57.060Z,20.63
2018-10-19T20:15:25.509Z,21.67
2018-10-19T20:17:53.936Z,19.67
2018-10-19T20:20:22.373Z,18.27
2018-10-19T20:22:51.409Z,19.27
2018-10-19T20:25:19.996Z,21.50
2018-10-19T20:27:48.412Z,21.20
2018-10-19T20:30:16.859Z,23.60
2018-10-19T20:32:45.286Z,23.10
2018-10-19T20:35:13.846Z,22.17
2018-10-19T20:37:42.169Z,21.43
2018-10-19T20:40:10.620Z,20.93
2018-10-19T20:42:39.081Z,23.13
2018-10-19T20:45:08.276Z,20.93
2018-10-19T20:47:43.050Z,20.27
2018-10-19T20:50:11.540Z,20.33
2018-10-19T20:52:39.899Z,18.53
2018-10-19T20:55:08.765Z,20.17
2018-10-19T20:57:37.305Z,18.60
2018-10-19T21:00:06.661Z,17.60
2018-10-19T21:02:35.820Z,17.30
2018-10-19T21:05:04.463Z,18.17
2018-10-19T21:07:32.950Z,18.20
2018-10-19T21:10:01.350Z,17.60
2018-10-19T21:12:29.749Z,17.40
2018-10-19T21:14:58.181Z,17.30
2018-10-19T21:17:26.593Z,17.63
2018-10-19T21:19:55.114Z,19.40
2018-10-19T21:22:23.542Z,17.03
2018-10-19T21:24:51.974Z,17.23
2018-10-19T21:27:20.406Z,16.53
2018-10-19T21:29:48.968Z,16.10
2018-10-19T21:32:17.420Z,17.97
2018-10-19T21:34:45.761Z,15.50
2018-10-19T21:37:14.170Z,16.43
2018-10-19T21:39:43.544Z,16.37
2018-10-19T21:42:12.017Z,17.33
2018-10-19T21:44:40.426Z,17.87
2018-10-19T21:47:08.961Z,15.90
2018-10-19T21:49:37.356Z,17.47
2018-10-19T21:52:06.078Z,16.67
2018-10-19T21:54:34.578Z,16.37
2018-10-19T21:57:03.089Z,17.30
2018-10-19T21:59:31.482Z,14.77
2018-10-19T22:01:59.891Z,14.73
2018-10-19T22:04:28.936Z,16.27
2018-10-19T22:06:57.349Z,15.53
2018-10-19T22:09:25.787Z,14.63
2018-10-19T22:11:54.194Z,15.23
2018-10-19T22:14:22.632Z,14.80
2018-10-19T22:16:51.136Z,14.93
2018-10-19T22:19:19.584Z,15.20
2018-10-19T22:21:48.005Z,14.43
2018-10-19T22:24:16.477Z,15.10
2018-10-19T22:26:44.909Z,15.03
2018-10-19T22:29:13.393Z,14.50
2018-10-19T22:31:41.856Z,15.77
2018-10-19T22:34:10.267Z,14.57
2018-10-19T22:36:38.700Z,14.53
2018-10-19T22:39:08.120Z,14.07
2018-10-19T22:41:37.117Z,14.23
2018-10-19T22:44:05.808Z,14.27
2018-10-19T22:46:34.249Z,15.77
2018-10-19T22:49:02.678Z,14.47
2018-10-19T22:51:31.057Z,14.27
2018-10-19T22:53:59.521Z,15.47
2018-10-19T22:56:27.974Z,15.30
2018-10-19T22:58:56.358Z,16.60
2018-10-19T23:01:24.736Z,16.40
2018-10-19T23:03:53.175Z,16.50
2018-10-19T23:06:21.597Z,15.70
2018-10-19T23:08:50.026Z,15.40
2018-10-19T23:11:18.495Z,15.43
2018-10-19T23:13:46.802Z,13.97
2018-10-19T23:16:15.240Z,14.83
2018-10-19T23:18:43.653Z,14.57
2018-10-19T23:21:12.044Z,16.33
2018-10-19T23:23:40.453Z,14.13
2018-10-19T23:26:08.868Z,15.27
2018-10-19T23:28:37.276Z,14.47
2018-10-19T23:31:05.785Z,15.70
2018-10-19T23:33:34.136Z,18.10
2018-10-19T23:36:02.555Z,17.30
2018-10-19T23:38:30.942Z,16.47
2018-10-19T23:40:59.409Z,16.47
2018-10-19T23:43:28.736Z,15.30
2018-10-19T23:45:57.145Z,15.13
2018-10-19T23:48:25.540Z,14.63
2018-10-19T23:50:53.933Z,14.43
2018-10-19T23:53:22.329Z,13.50
2018-10-19T23:55:50.735Z,13.77
2018-10-19T23:58:25.553Z,13.87
